sensor_id;sensor_type;location;lat;lon;timestamp;P1;durP1;ratioP1;P2;durP2;ratioP2
49071;SDS011;74284;52.610;10.236;2023-12-20T00:01:15;11.68;;;4.45;;
49071;SDS011;74284;52.610;10.236;2023-12-20T00:03:41;12.98;;;4.53;;
49071;SDS011;74284;52.610;10.236;2023-12-20T00:06:06;13.07;;;4.78;;
49071;SDS011;74284;52.610;10.236;2023-12-20T00:08:32;10.10;;;4.13;;
49071;SDS011;74284;52.610;10.236;2023-12-20T00:10:57;9.85;;;4.00;;
49071;SDS011;74284;52.610;10.236;2023-12-20T00:13:22;13.57;;;4.30;;
49071;SDS011;74284;52.610;10.236;2023-12-20T00:15:48;13.25;;;4.55;;
49071;SDS011;74284;52.610;10.236;2023-12-20T00:18:13;17.90;;;4.40;;
49071;SDS011;74284;52.610;10.236;2023-12-20T00:20:38;11.30;;;4.80;;
49071;SDS011;74284;52.610;10.236;2023-12-20T00:23:04;13.20;;;4.82;;
49071;SDS011;74284;52.610;10.236;2023-12-20T00:25:29;10.98;;;4.38;;
49071;SDS011;74284;52.610;10.236;2023-12-20T00:27:54;7.35;;;4.03;;
49071;SDS011;74284;52.610;10.236;2023-12-20T00:30:19;12.00;;;4.67;;
49071;SDS011;74284;52.610;10.236;2023-12-20T00:32:45;10.80;;;3.80;;
49071;SDS011;74284;52.610;10.236;2023-12-20T00:35:13;12.35;;;4.45;;
49071;SDS011;74284;52.610;10.236;2023-12-20T00:37:39;8.30;;;3.90;;
49071;SDS011;74284;52.610;10.236;2023-12-20T00:40:05;12.57;;;3.65;;
49071;SDS011;74284;52.610;10.236;2023-12-20T00:42:30;12.63;;;4.00;;
49071;SDS011;74284;52.610;10.236;2023-12-20T00:44:56;14.63;;;3.88;;
49071;SDS011;74284;52.610;10.236;2023-12-20T00:47:21;10.27;;;3.78;;
49071;SDS011;74284;52.610;10.236;2023-12-20T00:49:47;13.48;;;3.40;;
49071;SDS011;74284;52.610;10.236;2023-12-20T00:52:12;16.10;;;3.75;;
49071;SDS011;74284;52.610;10.236;2023-12-20T00:54:37;17.75;;;3.72;;
49071;SDS011;74284;52.610;10.236;2023-12-20T00:57:03;13.45;;;3.85;;
49071;SDS011;74284;52.610;10.236;2023-12-20T00:59:28;20.38;;;3.65;;
49071;SDS011;74284;52.610;10.236;2023-12-20T01:01:53;18.20;;;3.85;;
49071;SDS011;74284;52.610;10.236;2023-12-20T01:04:19;13.40;;;3.20;;
49071;SDS011;74284;52.610;10.236;2023-12-20T01:06:44;13.43;;;3.00;;
49071;SDS011;74284;52.610;10.236;2023-12-20T01:09:09;13.30;;;3.22;;
49071;SDS011;74284;52.610;10.236;2023-12-20T01:11:35;9.60;;;2.92;;
49071;SDS011;74284;52.610;10.236;2023-12-20T01:14:00;14.90;;;3.10;;
49071;SDS011;74284;52.610;10.236;2023-12-20T01:16:25;16.60;;;3.23;;
49071;SDS011;74284;52.610;10.236;2023-12-20T01:18:50;11.40;;;3.00;;
49071;SDS011;74284;52.610;10.236;2023-12-20T01:21:16;14.43;;;3.03;;
49071;SDS011;74284;52.610;10.236;2023-12-20T01:23:41;19.77;;;3.47;;
49071;SDS011;74284;52.610;10.236;2023-12-20T01:26:06;14.57;;;3.10;;
49071;SDS011;74284;52.610;10.236;2023-12-20T01:28:32;12.85;;;3.67;;
49071;SDS011;74284;52.610;10.236;2023-12-20T01:30:57;15.88;;;3.10;;
49071;SDS011;74284;52.610;10.236;2023-12-20T01:33:23;17.25;;;3.42;;
49071;SDS011;74284;52.610;10.236;2023-12-20T01:35:48;22.23;;;3.70;;
49071;SDS011;74284;52.610;10.236;2023-12-20T01:38:13;19.15;;;3.70;;
49071;SDS011;74284;52.610;10.236;2023-12-20T01:40:39;12.13;;;2.90;;
49071;SDS011;74284;52.610;10.236;2023-12-20T01:43:08;16.70;;;3.00;;
49071;SDS011;74284;52.610;10.236;2023-12-20T01:45:34;12.30;;;3.03;;
49071;SDS011;74284;52.610;10.236;2023-12-20T01:48:00;15.23;;;3.35;;
49071;SDS011;74284;52.610;10.236;2023-12-20T01:50:28;19.73;;;3.65;;
49071;SDS011;74284;52.610;10.236;2023-12-20T01:55:22;19.20;;;3.25;;
49071;SDS011;74284;52.610;10.236;2023-12-20T01:57:48;11.10;;;3.35;;
49071;SDS011;74284;52.610;10.236;2023-12-20T02:00:13;24.95;;;3.92;;
49071;SDS011;74284;52.610;10.236;2023-12-20T02:05:05;12.32;;;3.47;;
49071;SDS011;74284;52.610;10.236;2023-12-20T02:07:32;14.43;;;3.40;;
49071;SDS011;74284;52.610;10.236;2023-12-20T02:12:23;18.77;;;3.92;;
49071;SDS011;74284;52.610;10.236;2023-12-20T02:14:48;12.17;;;4.00;;
49071;SDS011;74284;52.610;10.236;2023-12-20T02:17:14;17.95;;;3.90;;
49071;SDS011;74284;52.610;10.236;2023-12-20T02:19:40;15.75;;;4.07;;
49071;SDS011;74284;52.610;10.236;2023-12-20T02:22:09;16.17;;;3.45;;
49071;SDS011;74284;52.610;10.236;2023-12-20T02:24:35;21.88;;;4.25;;
49071;SDS011;74284;52.610;10.236;2023-12-20T02:27:00;10.20;;;3.95;;
49071;SDS011;74284;52.610;10.236;2023-12-20T02:29:26;18.25;;;4.68;;
49071;SDS011;74284;52.610;10.236;2023-12-20T02:31:52;18.48;;;4.78;;
49071;SDS011;74284;52.610;10.236;2023-12-20T02:34:17;16.17;;;4.28;;
49071;SDS011;74284;52.610;10.236;2023-12-20T02:36:42;31.80;;;5.13;;
49071;SDS011;74284;52.610;10.236;2023-12-20T02:39:08;20.02;;;4.25;;
49071;SDS011;74284;52.610;10.236;2023-12-20T02:41:33;23.98;;;5.55;;
49071;SDS011;74284;52.610;10.236;2023-12-20T02:43:58;20.70;;;4.57;;
49071;SDS011;74284;52.610;10.236;2023-12-20T02:46:24;24.40;;;4.55;;
49071;SDS011;74284;52.610;10.236;2023-12-20T02:48:49;14.48;;;4.20;;
49071;SDS011;74284;52.610;10.236;2023-12-20T02:51:14;12.77;;;4.07;;
49071;SDS011;74284;52.610;10.236;2023-12-20T02:53:40;16.00;;;4.63;;
49071;SDS011;74284;52.610;10.236;2023-12-20T02:56:05;13.85;;;3.70;;
49071;SDS011;74284;52.610;10.236;2023-12-20T02:58:31;14.98;;;4.10;;
49071;SDS011;74284;52.610;10.236;2023-12-20T03:00:56;20.45;;;4.25;;
49071;SDS011;74284;52.610;10.236;2023-12-20T03:03:21;23.13;;;4.45;;
49071;SDS011;74284;52.610;10.236;2023-12-20T03:05:47;17.42;;;3.58;;
49071;SDS011;74284;52.610;10.236;2023-12-20T03:08:12;14.85;;;3.97;;
49071;SDS011;74284;52.610;10.236;2023-12-20T03:10:37;16.35;;;4.43;;
49071;SDS011;74284;52.610;10.236;2023-12-20T03:13:03;16.65;;;3.78;;
49071;SDS011;74284;52.610;10.236;2023-12-20T03:15:28;16.30;;;4.20;;
49071;SDS011;74284;52.610;10.236;2023-12-20T03:17:53;13.13;;;3.67;;
49071;SDS011;74284;52.610;10.236;2023-12-20T03:20:19;17.75;;;4.82;;
49071;SDS011;74284;52.610;10.236;2023-12-20T03:22:44;11.18;;;4.05;;
49071;SDS011;74284;52.610;10.236;2023-12-20T03:25:09;17.47;;;4.37;;
49071;SDS011;74284;52.610;10.236;2023-12-20T03:27:36;18.97;;;4.67;;
49071;SDS011;74284;52.610;10.236;2023-12-20T03:30:03;14.90;;;3.50;;
49071;SDS011;74284;52.610;10.236;2023-12-20T03:32:29;17.35;;;3.47;;
49071;SDS011;74284;52.610;10.236;2023-12-20T03:34:54;18.38;;;3.53;;
49071;SDS011;74284;52.610;10.236;2023-12-20T03:37:21;16.30;;;3.70;;
49071;SDS011;74284;52.610;10.236;2023-12-20T03:39:46;18.80;;;3.65;;
49071;SDS011;74284;52.610;10.236;2023-12-20T03:42:12;16.25;;;3.67;;
49071;SDS011;74284;52.610;10.236;2023-12-20T03:47:03;16.45;;;4.07;;
49071;SDS011;74284;52.610;10.236;2023-12-20T03:49:29;14.93;;;3.50;;
49071;SDS011;74284;52.610;10.236;2023-12-20T03:51:54;14.50;;;3.33;;
49071;SDS011;74284;52.610;10.236;2023-12-20T03:54:19;14.77;;;3.30;;
49071;SDS011;74284;52.610;10.236;2023-12-20T03:56:44;15.80;;;3.80;;
49071;SDS011;74284;52.610;10.236;2023-12-20T03:59:10;13.02;;;3.67;;
49071;SDS011;74284;52.610;10.236;2023-12-20T04:01:35;10.25;;;3.22;;
49071;SDS011;74284;52.610;10.236;2023-12-20T04:04:00;16.48;;;3.35;;
49071;SDS011;74284;52.610;10.236;2023-12-20T04:06:26;20.88;;;3.78;;
49071;SDS011;74284;52.610;10.236;2023-12-20T04:08:51;17.10;;;3.53;;
49071;SDS011;74284;52.610;10.236;2023-12-20T04:11:17;20.70;;;3.67;;
49071;SDS011;74284;52.610;10.236;2023-12-20T04:13:42;17.38;;;3.83;;
49071;SDS011;74284;52.610;10.236;2023-12-20T04:16:07;15.30;;;4.10;;
49071;SDS011;74284;52.610;10.236;2023-12-20T04:18:33;14.67;;;3.80;;
49071;SDS011;74284;52.610;10.236;2023-12-20T04:20:58;15.50;;;3.20;;
49071;SDS011;74284;52.610;10.236;2023-12-20T04:23:23;13.88;;;3.88;;
49071;SDS011;74284;52.610;10.236;2023-12-20T04:25:48;16.03;;;4.27;;
49071;SDS011;74284;52.610;10.236;2023-12-20T04:28:14;18.42;;;3.65;;
49071;SDS011;74284;52.610;10.236;2023-12-20T04:30:39;15.25;;;3.60;;
49071;SDS011;74284;52.610;10.236;2023-12-20T04:33:04;18.88;;;4.10;;
49071;SDS011;74284;52.610;10.236;2023-12-20T04:35:30;10.40;;;4.22;;
49071;SDS011;74284;52.610;10.236;2023-12-20T04:37:55;16.67;;;3.97;;
49071;SDS011;74284;52.610;10.236;2023-12-20T04:40:20;17.10;;;4.35;;
49071;SDS011;74284;52.610;10.236;2023-12-20T04:42:46;19.90;;;3.90;;
49071;SDS011;74284;52.610;10.236;2023-12-20T04:45:11;17.33;;;3.97;;
49071;SDS011;74284;52.610;10.236;2023-12-20T04:47:38;12.73;;;4.05;;
49071;SDS011;74284;52.610;10.236;2023-12-20T04:50:04;18.23;;;4.75;;
49071;SDS011;74284;52.610;10.236;2023-12-20T04:52:30;19.90;;;3.58;;
49071;SDS011;74284;52.610;10.236;2023-12-20T04:54:55;12.57;;;3.90;;
49071;SDS011;74284;52.610;10.236;2023-12-20T04:57:21;10.07;;;3.67;;
49071;SDS011;74284;52.610;10.236;2023-12-20T04:59:46;17.67;;;4.30;;
49071;SDS011;74284;52.610;10.236;2023-12-20T05:02:11;13.13;;;3.83;;
49071;SDS011;74284;52.610;10.236;2023-12-20T05:04:37;18.52;;;3.70;;
49071;SDS011;74284;52.610;10.236;2023-12-20T05:07:02;14.75;;;4.07;;
49071;SDS011;74284;52.610;10.236;2023-12-20T05:09:29;13.65;;;3.85;;
49071;SDS011;74284;52.610;10.236;2023-12-20T05:11:55;16.15;;;3.55;;
49071;SDS011;74284;52.610;10.236;2023-12-20T05:14:20;14.52;;;3.90;;
49071;SDS011;74284;52.610;10.236;2023-12-20T05:16:46;11.98;;;3.22;;
49071;SDS011;74284;52.610;10.236;2023-12-20T05:19:13;13.23;;;3.85;;
49071;SDS011;74284;52.610;10.236;2023-12-20T05:21:39;15.30;;;3.83;;
49071;SDS011;74284;52.610;10.236;2023-12-20T05:24:04;12.23;;;3.65;;
49071;SDS011;74284;52.610;10.236;2023-12-20T05:26:30;20.00;;;3.72;;
49071;SDS011;74284;52.610;10.236;2023-12-20T05:28:55;15.18;;;4.07;;
49071;SDS011;74284;52.610;10.236;2023-12-20T05:31:21;17.70;;;4.20;;
49071;SDS011;74284;52.610;10.236;2023-12-20T05:33:46;14.70;;;3.90;;
49071;SDS011;74284;52.610;10.236;2023-12-20T05:36:11;15.02;;;4.78;;
49071;SDS011;74284;52.610;10.236;2023-12-20T05:38:38;22.40;;;4.35;;
49071;SDS011;74284;52.610;10.236;2023-12-20T05:41:04;22.67;;;4.75;;
49071;SDS011;74284;52.610;10.236;2023-12-20T05:43:29;22.08;;;4.30;;
49071;SDS011;74284;52.610;10.236;2023-12-20T05:45:55;20.02;;;4.93;;
49071;SDS011;74284;52.610;10.236;2023-12-20T05:48:20;15.70;;;4.32;;
49071;SDS011;74284;52.610;10.236;2023-12-20T05:50:45;19.10;;;4.53;;
49071;SDS011;74284;52.610;10.236;2023-12-20T05:53:10;18.88;;;5.00;;
49071;SDS011;74284;52.610;10.236;2023-12-20T05:55:36;17.63;;;3.60;;
49071;SDS011;74284;52.610;10.236;2023-12-20T05:58:01;25.20;;;4.50;;
49071;SDS011;74284;52.610;10.236;2023-12-20T06:00:26;15.70;;;4.18;;
49071;SDS011;74284;52.610;10.236;2023-12-20T06:02:52;22.10;;;4.50;;
49071;SDS011;74284;52.610;10.236;2023-12-20T06:05:17;21.05;;;4.55;;
49071;SDS011;74284;52.610;10.236;2023-12-20T06:07:43;19.98;;;4.35;;
49071;SDS011;74284;52.610;10.236;2023-12-20T06:10:09;22.40;;;4.22;;
49071;SDS011;74284;52.610;10.236;2023-12-20T06:12:35;22.52;;;3.72;;
49071;SDS011;74284;52.610;10.236;2023-12-20T06:15:01;11.88;;;3.75;;
49071;SDS011;74284;52.610;10.236;2023-12-20T06:19:55;14.23;;;3.45;;
49071;SDS011;74284;52.610;10.236;2023-12-20T06:22:20;22.73;;;4.60;;
49071;SDS011;74284;52.610;10.236;2023-12-20T06:24:45;21.17;;;4.00;;
49071;SDS011;74284;52.610;10.236;2023-12-20T06:27:11;17.20;;;5.30;;
49071;SDS011;74284;52.610;10.236;2023-12-20T06:29:36;13.15;;;4.00;;
49071;SDS011;74284;52.610;10.236;2023-12-20T06:32:01;21.43;;;4.50;;
49071;SDS011;74284;52.610;10.236;2023-12-20T06:34:27;13.20;;;3.80;;
49071;SDS011;74284;52.610;10.236;2023-12-20T06:36:52;18.08;;;4.30;;
49071;SDS011;74284;52.610;10.236;2023-12-20T06:39:18;16.98;;;4.20;;
49071;SDS011;74284;52.610;10.236;2023-12-20T06:41:43;18.27;;;3.80;;
49071;SDS011;74284;52.610;10.236;2023-12-20T06:44:08;14.02;;;4.13;;
49071;SDS011;74284;52.610;10.236;2023-12-20T06:46:34;17.20;;;4.07;;
49071;SDS011;74284;52.610;10.236;2023-12-20T06:48:59;16.95;;;4.18;;
49071;SDS011;74284;52.610;10.236;2023-12-20T06:51:24;20.88;;;3.92;;
49071;SDS011;74284;52.610;10.236;2023-12-20T06:53:51;14.52;;;3.63;;
49071;SDS011;74284;52.610;10.236;2023-12-20T06:56:17;11.88;;;3.50;;
49071;SDS011;74284;52.610;10.236;2023-12-20T06:58:42;19.40;;;4.05;;
49071;SDS011;74284;52.610;10.236;2023-12-20T07:01:14;17.38;;;4.00;;
49071;SDS011;74284;52.610;10.236;2023-12-20T07:03:40;16.17;;;4.40;;
49071;SDS011;74284;52.610;10.236;2023-12-20T07:08:31;16.25;;;4.30;;
49071;SDS011;74284;52.610;10.236;2023-12-20T07:10:57;15.80;;;4.55;;
49071;SDS011;74284;52.610;10.236;2023-12-20T07:13:22;18.83;;;4.17;;
49071;SDS011;74284;52.610;10.236;2023-12-20T07:15:48;20.10;;;4.27;;
49071;SDS011;74284;52.610;10.236;2023-12-20T07:18:13;18.60;;;4.65;;
49071;SDS011;74284;52.610;10.236;2023-12-20T07:20:39;18.38;;;4.22;;
49071;SDS011;74284;52.610;10.236;2023-12-20T07:23:04;18.50;;;3.97;;
49071;SDS011;74284;52.610;10.236;2023-12-20T07:25:30;18.40;;;4.15;;
49071;SDS011;74284;52.610;10.236;2023-12-20T07:27:57;14.23;;;3.95;;
49071;SDS011;74284;52.610;10.236;2023-12-20T07:30:23;14.65;;;3.92;;
49071;SDS011;74284;52.610;10.236;2023-12-20T07:32:48;25.55;;;4.03;;
49071;SDS011;74284;52.610;10.236;2023-12-20T07:35:14;18.20;;;3.95;;
49071;SDS011;74284;52.610;10.236;2023-12-20T07:37:41;14.15;;;3.92;;
49071;SDS011;74284;52.610;10.236;2023-12-20T07:40:06;14.50;;;3.58;;
49071;SDS011;74284;52.610;10.236;2023-12-20T07:42:32;12.93;;;3.80;;
49071;SDS011;74284;52.610;10.236;2023-12-20T07:44:58;15.93;;;4.68;;
49071;SDS011;74284;52.610;10.236;2023-12-20T07:47:23;15.10;;;4.13;;
49071;SDS011;74284;52.610;10.236;2023-12-20T07:49:50;16.33;;;3.97;;
49071;SDS011;74284;52.610;10.236;2023-12-20T07:52:16;15.05;;;3.70;;
49071;SDS011;74284;52.610;10.236;2023-12-20T07:54:43;19.23;;;4.38;;
49071;SDS011;74284;52.610;10.236;2023-12-20T07:57:09;21.88;;;4.40;;
49071;SDS011;74284;52.610;10.236;2023-12-20T07:59:35;21.95;;;3.65;;
49071;SDS011;74284;52.610;10.236;2023-12-20T08:02:01;17.73;;;3.50;;
49071;SDS011;74284;52.610;10.236;2023-12-20T08:04:26;16.60;;;4.32;;
49071;SDS011;74284;52.610;10.236;2023-12-20T08:06:52;15.77;;;3.95;;
49071;SDS011;74284;52.610;10.236;2023-12-20T08:09:17;15.90;;;4.10;;
49071;SDS011;74284;52.610;10.236;2023-12-20T08:11:46;14.40;;;4.07;;
49071;SDS011;74284;52.610;10.236;2023-12-20T08:14:12;14.75;;;3.78;;
49071;SDS011;74284;52.610;10.236;2023-12-20T08:16:37;20.38;;;3.50;;
49071;SDS011;74284;52.610;10.236;2023-12-20T08:19:03;16.35;;;3.95;;
49071;SDS011;74284;52.610;10.236;2023-12-20T08:21:28;13.02;;;3.55;;
49071;SDS011;74284;52.610;10.236;2023-12-20T08:23:53;14.23;;;4.13;;
49071;SDS011;74284;52.610;10.236;2023-12-20T08:26:19;17.98;;;4.70;;
49071;SDS011;74284;52.610;10.236;2023-12-20T08:28:46;13.73;;;3.80;;
49071;SDS011;74284;52.610;10.236;2023-12-20T08:31:15;19.35;;;4.25;;
49071;SDS011;74284;52.610;10.236;2023-12-20T08:33:42;16.15;;;3.80;;
49071;SDS011;74284;52.610;10.236;2023-12-20T08:36:09;11.25;;;3.60;;
49071;SDS011;74284;52.610;10.236;2023-12-20T08:38:34;16.50;;;4.75;;
49071;SDS011;74284;52.610;10.236;2023-12-20T08:41:00;15.90;;;4.13;;
49071;SDS011;74284;52.610;10.236;2023-12-20T08:43:26;14.23;;;3.65;;
49071;SDS011;74284;52.610;10.236;2023-12-20T08:45:51;17.13;;;4.47;;
49071;SDS011;74284;52.610;10.236;2023-12-20T08:48:16;17.13;;;3.60;;
49071;SDS011;74284;52.610;10.236;2023-12-20T08:50:42;12.52;;;3.63;;
49071;SDS011;74284;52.610;10.236;2023-12-20T08:53:08;12.27;;;3.97;;
49071;SDS011;74284;52.610;10.236;2023-12-20T08:55:33;11.55;;;4.65;;
49071;SDS011;74284;52.610;10.236;2023-12-20T08:57:59;17.50;;;4.57;;
49071;SDS011;74284;52.610;10.236;2023-12-20T09:00:24;11.23;;;3.70;;
49071;SDS011;74284;52.610;10.236;2023-12-20T09:02:52;10.65;;;3.67;;
49071;SDS011;74284;52.610;10.236;2023-12-20T09:05:18;14.30;;;3.63;;
49071;SDS011;74284;52.610;10.236;2023-12-20T09:07:43;10.85;;;3.92;;
49071;SDS011;74284;52.610;10.236;2023-12-20T09:10:08;14.55;;;4.28;;
49071;SDS011;74284;52.610;10.236;2023-12-20T09:12:34;16.73;;;4.70;;
49071;SDS011;74284;52.610;10.236;2023-12-20T09:14:59;17.63;;;4.97;;
49071;SDS011;74284;52.610;10.236;2023-12-20T09:17:27;17.05;;;4.95;;
49071;SDS011;74284;52.610;10.236;2023-12-20T09:19:52;19.70;;;5.25;;
49071;SDS011;74284;52.610;10.236;2023-12-20T09:22:19;15.43;;;3.88;;
49071;SDS011;74284;52.610;10.236;2023-12-20T09:24:44;21.42;;;5.18;;
49071;SDS011;74284;52.610;10.236;2023-12-20T09:27:09;16.05;;;4.25;;
49071;SDS011;74284;52.610;10.236;2023-12-20T09:29:35;17.27;;;5.35;;
49071;SDS011;74284;52.610;10.236;2023-12-20T09:32:00;14.10;;;4.78;;
49071;SDS011;74284;52.610;10.236;2023-12-20T09:34:26;13.40;;;4.05;;
49071;SDS011;74284;52.610;10.236;2023-12-20T09:36:52;18.02;;;5.03;;
49071;SDS011;74284;52.610;10.236;2023-12-20T09:39:17;20.75;;;4.72;;
49071;SDS011;74284;52.610;10.236;2023-12-20T09:41:44;21.60;;;4.38;;
49071;SDS011;74284;52.610;10.236;2023-12-20T09:44:14;14.27;;;4.78;;
49071;SDS011;74284;52.610;10.236;2023-12-20T09:46:44;15.85;;;4.90;;
49071;SDS011;74284;52.610;10.236;2023-12-20T09:49:12;16.30;;;5.32;;
49071;SDS011;74284;52.610;10.236;2023-12-20T09:51:38;23.63;;;5.30;;
49071;SDS011;74284;52.610;10.236;2023-12-20T09:54:05;14.25;;;4.22;;
49071;SDS011;74284;52.610;10.236;2023-12-20T09:56:30;14.63;;;4.72;;
49071;SDS011;74284;52.610;10.236;2023-12-20T09:58:56;12.95;;;3.42;;
49071;SDS011;74284;52.610;10.236;2023-12-20T10:01:22;15.50;;;4.45;;
49071;SDS011;74284;52.610;10.236;2023-12-20T10:03:48;21.88;;;4.78;;
49071;SDS011;74284;52.610;10.236;2023-12-20T10:06:16;13.95;;;4.10;;
49071;SDS011;74284;52.610;10.236;2023-12-20T10:08:41;15.57;;;4.63;;
49071;SDS011;74284;52.610;10.236;2023-12-20T10:11:07;18.77;;;4.35;;
49071;SDS011;74284;52.610;10.236;2023-12-20T10:13:32;21.23;;;4.90;;
49071;SDS011;74284;52.610;10.236;2023-12-20T10:15:58;18.38;;;4.18;;
49071;SDS011;74284;52.610;10.236;2023-12-20T10:20:49;16.95;;;4.20;;
49071;SDS011;74284;52.610;10.236;2023-12-20T10:23:15;14.00;;;3.95;;
49071;SDS011;74284;52.610;10.236;2023-12-20T10:25:41;12.32;;;4.38;;
49071;SDS011;74284;52.610;10.236;2023-12-20T10:28:13;15.13;;;5.03;;
49071;SDS011;74284;52.610;10.236;2023-12-20T10:30:40;18.73;;;4.40;;
49071;SDS011;74284;52.610;10.236;2023-12-20T10:33:06;14.63;;;4.47;;
49071;SDS011;74284;52.610;10.236;2023-12-20T10:35:35;12.63;;;4.28;;
49071;SDS011;74284;52.610;10.236;2023-12-20T10:38:05;21.20;;;5.18;;
49071;SDS011;74284;52.610;10.236;2023-12-20T10:40:34;17.45;;;5.07;;
49071;SDS011;74284;52.610;10.236;2023-12-20T10:43:04;15.10;;;4.03;;
49071;SDS011;74284;52.610;10.236;2023-12-20T10:45:30;18.73;;;4.32;;
49071;SDS011;74284;52.610;10.236;2023-12-20T10:47:55;12.07;;;3.78;;
49071;SDS011;74284;52.610;10.236;2023-12-20T10:50:21;17.92;;;4.30;;
49071;SDS011;74284;52.610;10.236;2023-12-20T10:52:47;13.57;;;3.85;;
49071;SDS011;74284;52.610;10.236;2023-12-20T10:55:13;16.02;;;3.95;;
49071;SDS011;74284;52.610;10.236;2023-12-20T10:57:39;14.13;;;3.70;;
49071;SDS011;74284;52.610;10.236;2023-12-20T11:00:05;14.15;;;4.47;;
49071;SDS011;74284;52.610;10.236;2023-12-20T11:02:36;15.15;;;4.05;;
49071;SDS011;74284;52.610;10.236;2023-12-20T11:07:59;11.00;;;3.70;;
49071;SDS011;74284;52.610;10.236;2023-12-20T11:10:31;16.02;;;4.00;;
49071;SDS011;74284;52.610;10.236;2023-12-20T11:13:12;18.48;;;4.25;;
49071;SDS011;74284;52.610;10.236;2023-12-20T11:15:45;12.45;;;3.78;;
49071;SDS011;74284;52.610;10.236;2023-12-20T11:18:11;14.90;;;3.97;;
49071;SDS011;74284;52.610;10.236;2023-12-20T11:20:37;15.80;;;4.18;;
49071;SDS011;74284;52.610;10.236;2023-12-20T11:23:03;18.08;;;4.30;;
49071;SDS011;74284;52.610;10.236;2023-12-20T11:28:11;14.57;;;4.32;;
49071;SDS011;74284;52.610;10.236;2023-12-20T11:30:47;14.75;;;4.13;;
49071;SDS011;74284;52.610;10.236;2023-12-20T11:33:14;15.38;;;4.22;;
49071;SDS011;74284;52.610;10.236;2023-12-20T11:35:41;15.13;;;4.38;;
49071;SDS011;74284;52.610;10.236;2023-12-20T11:38:10;9.35;;;2.60;;
49071;SDS011;74284;52.610;10.236;2023-12-20T11:40:35;5.03;;;1.90;;
49071;SDS011;74284;52.610;10.236;2023-12-20T11:43:02;5.15;;;1.60;;
49071;SDS011;74284;52.610;10.236;2023-12-20T11:45:27;6.20;;;1.30;;
49071;SDS011;74284;52.610;10.236;2023-12-20T11:47:53;5.55;;;1.23;;
49071;SDS011;74284;52.610;10.236;2023-12-20T11:50:19;1.55;;;1.13;;
49071;SDS011;74284;52.610;10.236;2023-12-20T11:52:45;5.65;;;1.00;;
49071;SDS011;74284;52.610;10.236;2023-12-20T11:55:11;4.93;;;1.17;;
49071;SDS011;74284;52.610;10.236;2023-12-20T11:57:37;4.53;;;1.20;;
49071;SDS011;74284;52.610;10.236;2023-12-20T12:00:03;1.95;;;1.00;;
49071;SDS011;74284;52.610;10.236;2023-12-20T12:02:31;4.25;;;1.10;;
49071;SDS011;74284;52.610;10.236;2023-12-20T12:04:57;4.18;;;1.13;;
49071;SDS011;74284;52.610;10.236;2023-12-20T12:07:23;4.93;;;1.30;;
49071;SDS011;74284;52.610;10.236;2023-12-20T12:09:49;4.32;;;1.35;;
49071;SDS011;74284;52.610;10.236;2023-12-20T12:12:14;5.90;;;1.40;;
49071;SDS011;74284;52.610;10.236;2023-12-20T12:14:40;5.70;;;1.20;;
49071;SDS011;74284;52.610;10.236;2023-12-20T12:17:12;3.97;;;1.02;;
49071;SDS011;74284;52.610;10.236;2023-12-20T12:19:38;6.32;;;1.23;;
49071;SDS011;74284;52.610;10.236;2023-12-20T12:24:36;5.22;;;1.35;;
49071;SDS011;74284;52.610;10.236;2023-12-20T12:27:02;5.45;;;1.25;;
49071;SDS011;74284;52.610;10.236;2023-12-20T12:29:27;5.35;;;1.10;;
49071;SDS011;74284;52.610;10.236;2023-12-20T12:31:52;4.38;;;1.40;;
49071;SDS011;74284;52.610;10.236;2023-12-20T12:34:18;2.58;;;1.20;;
49071;SDS011;74284;52.610;10.236;2023-12-20T12:36:43;5.47;;;1.50;;
49071;SDS011;74284;52.610;10.236;2023-12-20T12:41:37;6.65;;;1.88;;
49071;SDS011;74284;52.610;10.236;2023-12-20T12:44:02;6.68;;;1.95;;
49071;SDS011;74284;52.610;10.236;2023-12-20T12:46:28;3.50;;;1.45;;
49071;SDS011;74284;52.610;10.236;2023-12-20T12:48:53;5.72;;;1.75;;
49071;SDS011;74284;52.610;10.236;2023-12-20T12:51:19;8.68;;;1.65;;
49071;SDS011;74284;52.610;10.236;2023-12-20T12:53:44;5.10;;;1.80;;
49071;SDS011;74284;52.610;10.236;2023-12-20T12:56:10;7.10;;;1.40;;
49071;SDS011;74284;52.610;10.236;2023-12-20T12:58:38;5.32;;;1.70;;
49071;SDS011;74284;52.610;10.236;2023-12-20T13:01:03;5.32;;;1.52;;
49071;SDS011;74284;52.610;10.236;2023-12-20T13:03:28;5.93;;;1.50;;
49071;SDS011;74284;52.610;10.236;2023-12-20T13:05:53;8.95;;;1.73;;
49071;SDS011;74284;52.610;10.236;2023-12-20T13:08:20;6.35;;;1.77;;
49071;SDS011;74284;52.610;10.236;2023-12-20T13:10:45;4.88;;;1.45;;
49071;SDS011;74284;52.610;10.236;2023-12-20T13:13:11;7.72;;;1.77;;
49071;SDS011;74284;52.610;10.236;2023-12-20T13:15:36;6.07;;;1.40;;
49071;SDS011;74284;52.610;10.236;2023-12-20T13:18:01;6.53;;;1.83;;
49071;SDS011;74284;52.610;10.236;2023-12-20T13:20:27;6.47;;;1.60;;
49071;SDS011;74284;52.610;10.236;2023-12-20T13:22:52;5.05;;;2.03;;
49071;SDS011;74284;52.610;10.236;2023-12-20T13:25:18;8.15;;;1.80;;
49071;SDS011;74284;52.610;10.236;2023-12-20T13:27:43;8.07;;;1.60;;
49071;SDS011;74284;52.610;10.236;2023-12-20T13:30:08;7.43;;;1.90;;
49071;SDS011;74284;52.610;10.236;2023-12-20T13:32:34;9.13;;;1.88;;
49071;SDS011;74284;52.610;10.236;2023-12-20T13:35:00;9.23;;;2.20;;
49071;SDS011;74284;52.610;10.236;2023-12-20T13:37:25;9.80;;;2.00;;
49071;SDS011;74284;52.610;10.236;2023-12-20T13:39:51;8.48;;;1.67;;
49071;SDS011;74284;52.610;10.236;2023-12-20T13:42:16;13.15;;;1.88;;
49071;SDS011;74284;52.610;10.236;2023-12-20T13:44:41;9.35;;;2.33;;
49071;SDS011;74284;52.610;10.236;2023-12-20T13:47:07;5.03;;;1.87;;
49071;SDS011;74284;52.610;10.236;2023-12-20T13:49:32;7.53;;;2.10;;
49071;SDS011;74284;52.610;10.236;2023-12-20T13:51:59;9.13;;;1.60;;
49071;SDS011;74284;52.610;10.236;2023-12-20T13:54:24;9.77;;;1.95;;
49071;SDS011;74284;52.610;10.236;2023-12-20T13:56:49;18.42;;;2.65;;
49071;SDS011;74284;52.610;10.236;2023-12-20T13:59:15;8.27;;;2.03;;
49071;SDS011;74284;52.610;10.236;2023-12-20T14:01:41;7.90;;;1.90;;
49071;SDS011;74284;52.610;10.236;2023-12-20T14:04:06;10.00;;;2.38;;
49071;SDS011;74284;52.610;10.236;2023-12-20T14:06:32;6.88;;;2.05;;
49071;SDS011;74284;52.610;10.236;2023-12-20T14:08:57;10.80;;;2.33;;
49071;SDS011;74284;52.610;10.236;2023-12-20T14:11:25;11.38;;;2.03;;
49071;SDS011;74284;52.610;10.236;2023-12-20T14:13:50;8.55;;;1.98;;
49071;SDS011;74284;52.610;10.236;2023-12-20T14:16:16;12.18;;;2.08;;
49071;SDS011;74284;52.610;10.236;2023-12-20T14:18:41;5.63;;;1.63;;
49071;SDS011;74284;52.610;10.236;2023-12-20T14:21:07;14.88;;;2.63;;
49071;SDS011;74284;52.610;10.236;2023-12-20T14:23:32;6.65;;;1.90;;
49071;SDS011;74284;52.610;10.236;2023-12-20T14:28:24;7.90;;;2.03;;
49071;SDS011;74284;52.610;10.236;2023-12-20T14:30:50;5.82;;;1.73;;
49071;SDS011;74284;52.610;10.236;2023-12-20T14:33:15;8.45;;;1.70;;
49071;SDS011;74284;52.610;10.236;2023-12-20T14:35:40;6.00;;;1.40;;
49071;SDS011;74284;52.610;10.236;2023-12-20T14:38:07;10.98;;;2.47;;
49071;SDS011;74284;52.610;10.236;2023-12-20T14:40:33;11.63;;;1.90;;
49071;SDS011;74284;52.610;10.236;2023-12-20T14:42:58;12.32;;;2.08;;
49071;SDS011;74284;52.610;10.236;2023-12-20T14:45:24;7.75;;;1.63;;